Time;durP1;ratioP1;P1;durP2;ratioP2;P2;SDS_P1;SDS_P2;PMS_P1;PMS_P2;Temp;Humidity;BMP_temperature;BMP_pressure;BME280_temperature;BME280_humidity;BME280_pressure;Samples;Min_cycle;Max_cycle;Signal;HPM_P1;HPM_P2
2022/07/01 00:01:17;;;;;;;;;;;24.90;96.90;;;;;;4938591;29;19964;-96
2022/07/01 00:06:46;;;;;;;;;;;24.90;96.60;;;;;;4937188;29;19988;-96
2022/07/01 00:09:22;;;;;;;;;;;24.90;96.80;;;;;;4959502;28;19906;-96
2022/07/01 00:14:50;;;;;;;;;;;24.90;96.50;;;;;;4940225;29;20010;-96
2022/07/01 00:17:21;;;;;;;;;;;24.90;96.40;;;;;;4957002;28;19950;-96
2022/07/01 00:22:50;;;;;;;;;;;24.90;96.60;;;;;;4937560;29;20390;-96
2022/07/01 00:28:18;;;;;;;;;;;24.90;96.70;;;;;;4942008;29;19954;-91
2022/07/01 05:08:00;;;;;;;;;;;26.50;91.10;;;;;;5662276;23;20585;-77
2022/07/01 05:10:25;;;;;;;;;;;26.50;91.10;;;;;;4950188;28;19911;-76
2022/07/01 05:12:56;;;;;;;;;;;26.60;90.80;;;;;;4931935;29;19919;-79
2022/07/01 05:15:21;;;;;;;;;;;26.60;90.80;;;;;;4936789;28;19915;-78
2022/07/01 05:26:15;;;;;;;;;;;26.70;90.20;;;;;;5170586;23;20399;-71
2022/07/01 05:28:41;;;;;;;;;;;26.80;90.10;;;;;;4928169;28;19917;-71
2022/07/01 05:31:07;;;;;;;;;;;26.90;90.20;;;;;;4951517;28;19936;-74
2022/07/01 05:33:33;;;;;;;;;;;27.00;89.40;;;;;;4934374;29;19914;-75
2022/07/01 05:36:04;;;;;;;;;;;27.00;89.30;;;;;;4936663;28;19914;-74
2022/07/01 05:38:33;;;;;;;;;;;27.00;88.80;;;;;;4936945;28;19915;-75
2022/07/01 05:41:02;;;;;;;;;;;27.10;87.90;;;;;;4949878;28;19977;-74
2022/07/01 05:43:34;;;;;;;;;;;27.20;86.80;;;;;;4941979;29;19926;-75
2022/07/01 05:46:00;;;;;;;;;;;27.40;87.40;;;;;;4934679;29;20215;-75
2022/07/01 05:48:25;;;;;;;;;;;27.60;85.50;;;;;;4940911;28;20764;-75
2022/07/01 05:50:59;;;;;;;;;;;28.00;84.80;;;;;;4935313;28;19911;-75
2022/07/01 05:53:26;;;;;;;;;;;28.50;83.50;;;;;;4935039;28;19921;-77
2022/07/01 05:55:55;;;;;;;;;;;28.80;82.20;;;;;;4937090;28;19977;-77
2022/07/01 05:58:21;;;;;;;;;;;29.10;81.30;;;;;;4952764;28;19918;-77
2022/07/01 06:00:50;;;;;;;;;;;29.30;80.70;;;;;;4936626;28;19907;-77
2022/07/01 06:03:16;;;;;;;;;;;29.30;80.30;;;;;;4933742;28;19946;-77
2022/07/01 06:05:45;;;;;;;;;;;29.40;81.00;;;;;;4932717;29;19907;-77
2022/07/01 06:08:19;;;;;;;;;;;29.30;80.20;;;;;;4940615;28;20299;-77
2022/07/01 06:10:47;;;;;;;;;;;29.40;80.10;;;;;;4948931;28;19913;-77
2022/07/01 06:13:22;;;;;;;;;;;29.20;80.00;;;;;;4938445;28;19985;-78
2022/07/01 06:15:47;;;;;;;;;;;28.90;80.50;;;;;;4928158;28;19917;-77
2022/07/01 06:18:13;;;;;;;;;;;28.30;81.90;;;;;;4933687;29;20526;-77
2022/07/01 06:20:38;;;;;;;;;;;27.90;83.10;;;;;;4929103;29;19910;-78
2022/07/01 06:23:05;;;;;;;;;;;27.60;84.30;;;;;;4930994;29;19917;-77
2022/07/01 06:25:34;;;;;;;;;;;27.40;85.40;;;;;;4942049;28;19964;-77
2022/07/01 06:28:05;;;;;;;;;;;27.20;85.60;;;;;;4928133;29;19919;-77
2022/07/01 06:30:31;;;;;;;;;;;27.00;86.00;;;;;;4931440;29;19915;-77
2022/07/01 06:32:58;;;;;;;;;;;27.10;86.80;;;;;;4921317;29;19911;-77
2022/07/01 06:35:26;;;;;;;;;;;27.40;85.90;;;;;;4941071;28;19915;-76
2022/07/01 06:37:57;;;;;;;;;;;28.10;84.20;;;;;;4940785;28;20063;-75
2022/07/01 06:40:25;;;;;;;;;;;28.90;82.40;;;;;;4927782;28;21174;-77
2022/07/01 06:42:53;;;;;;;;;;;29.70;80.90;;;;;;4920140;29;19906;-77
2022/07/01 06:45:20;;;;;;;;;;;30.40;79.30;;;;;;4921374;28;19915;-77
2022/07/01 06:47:47;;;;;;;;;;;30.90;77.70;;;;;;4925751;29;20005;-77
2022/07/01 06:50:13;;;;;;;;;;;31.30;76.80;;;;;;4931092;28;19914;-77
2022/07/01 06:52:38;;;;;;;;;;;31.70;75.40;;;;;;4924346;29;20312;-75
2022/07/01 06:55:04;;;;;;;;;;;31.70;75.40;;;;;;4929072;29;20269;-77
2022/07/01 06:57:30;;;;;;;;;;;32.20;74.30;;;;;;4928358;29;19914;-75
2022/07/01 06:59:56;;;;;;;;;;;32.60;73.40;;;;;;4918803;29;19957;-75
2022/07/01 07:02:22;;;;;;;;;;;32.70;72.80;;;;;;4922288;28;19921;-75
2022/07/01 07:04:47;;;;;;;;;;;32.90;72.40;;;;;;4924529;29;19918;-75
2022/07/01 07:07:13;;;;;;;;;;;33.00;71.40;;;;;;4933548;28;19941;-75
2022/07/01 07:09:39;;;;;;;;;;;33.30;70.40;;;;;;4922923;28;19966;-75
2022/07/01 07:12:04;;;;;;;;;;;33.20;70.50;;;;;;4915175;28;20381;-75
2022/07/01 07:14:31;;;;;;;;;;;33.60;70.00;;;;;;4928245;29;20014;-75
2022/07/01 07:16:57;;;;;;;;;;;34.00;68.90;;;;;;4925130;29;19911;-75
2022/07/01 07:19:25;;;;;;;;;;;34.00;68.30;;;;;;4938730;28;19914;-75
2022/07/01 07:21:50;;;;;;;;;;;34.30;68.20;;;;;;4922871;28;20382;-75
2022/07/01 07:24:18;;;;;;;;;;;34.40;67.10;;;;;;4924013;29;19911;-75
2022/07/01 07:26:44;;;;;;;;;;;34.70;66.00;;;;;;4943988;28;20382;-75
2022/07/01 07:29:10;;;;;;;;;;;34.70;66.40;;;;;;4927173;29;19907;-75
2022/07/01 07:31:37;;;;;;;;;;;35.00;65.70;;;;;;4924177;28;19922;-75
2022/07/01 07:34:03;;;;;;;;;;;34.90;65.40;;;;;;4923171;29;19962;-75
2022/07/01 07:36:29;;;;;;;;;;;34.90;65.70;;;;;;4928547;28;20637;-75
2022/07/01 07:38:56;;;;;;;;;;;35.00;64.80;;;;;;4933751;28;19921;-75
2022/07/01 07:41:23;;;;;;;;;;;35.00;64.80;;;;;;4928461;29;19918;-75
2022/07/01 07:43:53;;;;;;;;;;;35.20;65.00;;;;;;4926580;29;19925;-75
2022/07/01 07:46:23;;;;;;;;;;;35.40;63.80;;;;;;4925066;28;19942;-75
2022/07/01 07:48:56;;;;;;;;;;;35.50;63.60;;;;;;4925149;29;19915;-75
2022/07/01 07:51:26;;;;;;;;;;;35.80;63.70;;;;;;4927497;29;19915;-75
2022/07/01 07:54:02;;;;;;;;;;;36.10;63.30;;;;;;4921989;29;19926;-75
2022/07/01 07:56:29;;;;;;;;;;;36.70;62.50;;;;;;4927060;28;19949;-76
2022/07/01 07:58:55;;;;;;;;;;;36.70;61.50;;;;;;4926544;28;19914;-75
2022/07/01 08:01:27;;;;;;;;;;;36.70;61.00;;;;;;4920051;28;19911;-75
2022/07/01 08:03:55;;;;;;;;;;;36.50;61.00;;;;;;4925538;29;20332;-75
2022/07/01 08:06:25;;;;;;;;;;;36.30;60.70;;;;;;4940561;28;19910;-75
2022/07/01 08:09:08;;;;;;;;;;;36.30;60.70;;;;;;4926735;28;19906;-75
2022/07/01 08:11:36;;;;;;;;;;;36.10;60.70;;;;;;4933929;28;19910;-75
2022/07/01 08:14:03;;;;;;;;;;;35.90;61.30;;;;;;4936214;28;20460;-75
2022/07/01 08:16:40;;;;;;;;;;;36.20;61.20;;;;;;4918388;29;19999;-76
2022/07/01 08:19:06;;;;;;;;;;;36.70;60.40;;;;;;4939280;28;19907;-75
2022/07/01 08:21:33;;;;;;;;;;;37.00;59.60;;;;;;4918856;29;20550;-75
2022/07/01 08:23:58;;;;;;;;;;;37.00;59.30;;;;;;4921982;29;19943;-75
2022/07/01 08:26:25;;;;;;;;;;;36.90;59.10;;;;;;4920428;29;19991;-76
2022/07/01 08:28:51;;;;;;;;;;;37.20;59.10;;;;;;4929997;29;19906;-75
2022/07/01 08:31:23;;;;;;;;;;;37.60;58.80;;;;;;4921773;28;19953;-76
2022/07/01 08:33:49;;;;;;;;;;;37.90;58.50;;;;;;4927314;28;19950;-75
2022/07/01 08:36:16;;;;;;;;;;;38.20;57.40;;;;;;4929361;28;19958;-75
2022/07/01 08:38:42;;;;;;;;;;;38.50;57.20;;;;;;4927733;29;19910;-75
2022/07/01 08:41:09;;;;;;;;;;;38.30;56.60;;;;;;4922502;29;20352;-75
2022/07/01 08:43:38;;;;;;;;;;;38.30;56.90;;;;;;4930220;29;19982;-75
2022/07/01 08:46:06;;;;;;;;;;;38.50;56.70;;;;;;4923052;29;19907;-75
2022/07/01 08:48:33;;;;;;;;;;;38.70;56.70;;;;;;4920844;29;19907;-75
2022/07/01 08:51:03;;;;;;;;;;;38.80;56.00;;;;;;4938920;28;19944;-76
2022/07/01 08:53:36;;;;;;;;;;;38.80;55.60;;;;;;4918569;29;19914;-75
2022/07/01 08:58:57;;;;;;;;;;;39.10;55.60;;;;;;4929842;29;19918;-75
2022/07/01 09:01:25;;;;;;;;;;;39.60;54.60;;;;;;4921207;28;19910;-79
2022/07/01 09:03:53;;;;;;;;;;;39.70;54.00;;;;;;4939695;28;19921;-78
2022/07/01 09:06:32;;;;;;;;;;;39.20;53.90;;;;;;4933420;28;20225;-75
2022/07/01 09:09:09;;;;;;;;;;;38.00;54.90;;;;;;4931029;29;19919;-75
2022/07/01 09:11:35;;;;;;;;;;;37.40;56.10;;;;;;4926159;29;19938;-75
2022/07/01 09:14:11;;;;;;;;;;;37.80;55.80;;;;;;4925275;29;19953;-75
2022/07/01 09:16:45;;;;;;;;;;;38.10;55.30;;;;;;4917913;29;20849;-75
2022/07/01 09:19:12;;;;;;;;;;;38.10;55.50;;;;;;4927573;29;19906;-75
2022/07/01 09:21:38;;;;;;;;;;;38.80;55.20;;;;;;4917037;29;20392;-77
2022/07/01 09:24:06;;;;;;;;;;;39.50;54.50;;;;;;4934505;28;19961;-78
2022/07/01 09:26:34;;;;;;;;;;;39.70;53.80;;;;;;4924111;29;19910;-77
2022/07/01 09:29:02;;;;;;;;;;;40.30;53.40;;;;;;4945447;28;19998;-78
2022/07/01 09:31:47;;;;;;;;;;;41.20;52.80;;;;;;4921757;29;19922;-78
2022/07/01 09:34:15;;;;;;;;;;;41.40;51.70;;;;;;4926939;29;20375;-78
2022/07/01 09:36:55;;;;;;;;;;;41.50;51.70;;;;;;4921358;28;19911;-77
2022/07/01 09:39:23;;;;;;;;;;;42.30;50.70;;;;;;4934807;28;19907;-77
2022/07/01 09:41:49;;;;;;;;;;;42.70;50.10;;;;;;4939033;28;19915;-78
2022/07/01 09:44:19;;;;;;;;;;;42.80;49.40;;;;;;4938083;28;19963;-77
2022/07/01 09:46:56;;;;;;;;;;;43.00;49.60;;;;;;4928811;28;19907;-78
2022/07/01 09:49:30;;;;;;;;;;;43.30;49.20;;;;;;4943899;28;20016;-75
2022/07/01 09:51:56;;;;;;;;;;;44.20;48.30;;;;;;4925760;28;19914;-75
2022/07/01 09:54:24;;;;;;;;;;;44.70;47.70;;;;;;4927090;29;21737;-75
2022/07/01 09:56:53;;;;;;;;;;;45.30;47.20;;;;;;4925443;28;19966;-75
2022/07/01 09:59:19;;;;;;;;;;;45.30;46.30;;;;;;4929716;28;20291;-75
2022/07/01 10:01:48;;;;;;;;;;;45.20;46.10;;;;;;4935418;28;19906;-76
2022/07/01 10:04:20;;;;;;;;;;;45.30;46.50;;;;;;4922813;29;19956;-75
2022/07/01 10:07:10;;;;;;;;;;;45.50;46.00;;;;;;4927236;29;19934;-75
2022/07/01 10:09:43;;;;;;;;;;;45.10;46.20;;;;;;4920822;29;19914;-75
2022/07/01 10:12:27;;;;;;;;;;;44.60;46.10;;;;;;4939084;28;20656;-75
2022/07/01 10:14:56;;;;;;;;;;;45.00;46.40;;;;;;4928128;29;20020;-75
2022/07/01 10:17:29;;;;;;;;;;;45.00;45.40;;;;;;4942764;28;19911;-75
2022/07/01 10:19:56;;;;;;;;;;;45.30;44.80;;;;;;4923560;28;19961;-75
2022/07/01 10:22:26;;;;;;;;;;;45.60;44.90;;;;;;4925178;29;19915;-75
2022/07/01 10:24:56;;;;;;;;;;;45.90;44.80;;;;;;4923673;28;20454;-75
2022/07/01 10:27:22;;;;;;;;;;;46.00;44.50;;;;;;4934463;28;19907;-75
2022/07/01 10:29:48;;;;;;;;;;;46.00;44.40;;;;;;4927088;29;20427;-76
2022/07/01 10:32:23;;;;;;;;;;;45.80;44.40;;;;;;4929524;28;19917;-75
2022/07/01 10:35:02;;;;;;;;;;;46.40;44.20;;;;;;4927411;29;19914;-75
2022/07/01 10:37:29;;;;;;;;;;;46.60;43.90;;;;;;4928833;29;19911;-75
2022/07/01 10:39:57;;;;;;;;;;;46.80;43.20;;;;;;4924458;28;19937;-75
2022/07/01 10:42:55;;;;;;;;;;;47.10;42.90;;;;;;4931745;29;19910;-76
2022/07/01 10:45:23;;;;;;;;;;;46.90;42.80;;;;;;4927747;28;19936;-75
2022/07/01 10:48:11;;;;;;;;;;;47.50;42.60;;;;;;4927301;29;19993;-75
2022/07/01 10:50:47;;;;;;;;;;;47.20;42.30;;;;;;4928393;29;19907;-75
2022/07/01 10:53:15;;;;;;;;;;;46.90;42.40;;;;;;4922047;29;19930;-75
2022/07/01 10:55:45;;;;;;;;;;;47.00;42.60;;;;;;4933779;28;19906;-75
2022/07/01 10:58:12;;;;;;;;;;;45.90;42.40;;;;;;4939410;28;19918;-75
2022/07/01 11:00:50;;;;;;;;;;;45.20;43.20;;;;;;4926019;29;20570;-77
2022/07/01 11:03:22;;;;;;;;;;;43.10;44.30;;;;;;4922195;29;19958;-78
2022/07/01 11:05:49;;;;;;;;;;;40.50;46.40;;;;;;4929048;29;20364;-75
2022/07/01 11:08:17;;;;;;;;;;;38.60;48.40;;;;;;4924527;29;19907;-75
2022/07/01 11:10:43;;;;;;;;;;;37.10;50.70;;;;;;4926762;28;19906;-75
2022/07/01 11:13:19;;;;;;;;;;;36.10;52.80;;;;;;4921378;29;20491;-74
2022/07/01 11:15:47;;;;;;;;;;;35.50;53.80;;;;;;4941799;28;19906;-75
2022/07/01 11:18:13;;;;;;;;;;;34.80;54.50;;;;;;4936225;28;19907;-75
2022/07/01 11:20:40;;;;;;;;;;;34.50;55.10;;;;;;4930704;28;19913;-75
2022/07/01 11:23:08;;;;;;;;;;;34.30;56.00;;;;;;4919430;29;19942;-76
2022/07/01 11:25:34;;;;;;;;;;;33.90;56.90;;;;;;4934106;29;19993;-75
2022/07/01 11:28:06;;;;;;;;;;;33.90;56.50;;;;;;4923007;29;20022;-75
2022/07/01 11:30:33;;;;;;;;;;;33.70;56.90;;;;;;4928968;29;19906;-76
2022/07/01 11:32:59;;;;;;;;;;;33.60;57.00;;;;;;4925036;29;20022;-76
2022/07/01 11:41:03;;;;;;;;;;;33.40;58.10;;;;;;4926088;29;20041;-75
2022/07/01 11:43:32;;;;;;;;;;;33.40;57.20;;;;;;4930114;29;19914;-75
2022/07/01 11:46:01;;;;;;;;;;;33.30;58.30;;;;;;4922844;29;20110;-76
2022/07/01 11:48:28;;;;;;;;;;;33.40;58.70;;;;;;4926884;29;20744;-75
2022/07/01 11:50:53;;;;;;;;;;;33.40;58.40;;;;;;4923219;29;20300;-75
2022/07/01 11:53:27;;;;;;;;;;;33.50;57.80;;;;;;4935073;28;19906;-74
2022/07/01 11:55:59;;;;;;;;;;;33.30;57.30;;;;;;4926821;28;19949;-77
2022/07/01 11:58:41;;;;;;;;;;;33.20;57.70;;;;;;4939433;28;20001;-75
2022/07/01 12:01:27;;;;;;;;;;;33.20;58.00;;;;;;4921542;29;20360;-76
2022/07/01 12:03:56;;;;;;;;;;;33.10;58.40;;;;;;4937623;28;19927;-77
2022/07/01 12:06:23;;;;;;;;;;;33.10;58.40;;;;;;4932401;28;20025;-77
2022/07/01 12:08:50;;;;;;;;;;;33.10;58.60;;;;;;4921383;28;20560;-77
2022/07/01 12:11:25;;;;;;;;;;;33.00;58.00;;;;;;4918105;29;19914;-75
2022/07/01 12:13:51;;;;;;;;;;;33.10;57.80;;;;;;4941303;28;20542;-76
2022/07/01 12:16:20;;;;;;;;;;;33.10;58.00;;;;;;4926373;28;19946;-76
2022/07/01 12:19:02;;;;;;;;;;;33.20;58.00;;;;;;4920158;28;19907;-75
2022/07/01 12:21:28;;;;;;;;;;;33.30;59.10;;;;;;4916149;29;19907;-77
2022/07/01 12:24:07;;;;;;;;;;;33.50;58.60;;;;;;4925375;29;20423;-77
2022/07/01 12:26:58;;;;;;;;;;;33.50;58.50;;;;;;4920847;29;19992;-75
2022/07/01 12:29:26;;;;;;;;;;;33.60;58.50;;;;;;4925635;29;20056;-78
2022/07/01 12:32:02;;;;;;;;;;;33.50;57.80;;;;;;4925988;28;19919;-77
2022/07/01 12:34:42;;;;;;;;;;;33.40;58.60;;;;;;4921630;29;19938;-78
2022/07/01 12:37:13;;;;;;;;;;;33.30;58.50;;;;;;4930687;28;19918;-75
2022/07/01 12:39:43;;;;;;;;;;;33.30;59.20;;;;;;4919169;29;20371;-74
2022/07/01 12:42:18;;;;;;;;;;;33.10;59.10;;;;;;4924434;29;19910;-74
2022/07/01 12:44:46;;;;;;;;;;;33.00;59.50;;;;;;4917737;29;19925;-74
2022/07/01 12:47:24;;;;;;;;;;;32.80;59.60;;;;;;4924730;29;20279;-71
2022/07/01 12:50:02;;;;;;;;;;;32.70;60.20;;;;;;4925301;28;19993;-74
2022/07/01 12:52:28;;;;;;;;;;;32.60;60.20;;;;;;4923851;29;19978;-72
2022/07/01 12:54:56;;;;;;;;;;;32.60;60.50;;;;;;4919818;28;19914;-71
2022/07/01 12:57:31;;;;;;;;;;;32.60;60.80;;;;;;4927499;29;19910;-73
2022/07/01 12:59:58;;;;;;;;;;;32.70;60.60;;;;;;4923536;29;19911;-74
2022/07/01 13:02:24;;;;;;;;;;;32.80;60.80;;;;;;4941634;28;20272;-72
2022/07/01 13:04:51;;;;;;;;;;;33.00;60.40;;;;;;4924532;29;19910;-71
2022/07/01 13:07:16;;;;;;;;;;;33.40;60.10;;;;;;4930650;28;19921;-72
2022/07/01 13:09:43;;;;;;;;;;;33.70;59.10;;;;;;4931755;29;19907;-71
2022/07/01 13:12:09;;;;;;;;;;;33.90;58.80;;;;;;4929279;29;19914;-71
2022/07/01 13:14:34;;;;;;;;;;;33.40;58.40;;;;;;4937227;29;19929;-71
2022/07/01 13:17:00;;;;;;;;;;;33.30;58.20;;;;;;4924020;29;19997;-71
2022/07/01 13:19:26;;;;;;;;;;;33.20;57.80;;;;;;4932301;29;20422;-71
2022/07/01 13:21:54;;;;;;;;;;;33.10;58.30;;;;;;4924258;28;19914;-71
2022/07/01 13:24:20;;;;;;;;;;;33.20;57.90;;;;;;4932110;29;19910;-74
2022/07/01 13:26:46;;;;;;;;;;;33.20;58.20;;;;;;4924468;29;19946;-71
2022/07/01 13:29:11;;;;;;;;;;;33.30;59.10;;;;;;4926509;29;19982;-71
2022/07/01 13:31:37;;;;;;;;;;;33.40;58.70;;;;;;4925842;29;19911;-72
2022/07/01 13:34:02;;;;;;;;;;;33.40;57.90;;;;;;4941609;28;19945;-71
2022/07/01 13:36:30;;;;;;;;;;;33.50;58.70;;;;;;4932557;29;20491;-71
2022/07/01 13:38:55;;;;;;;;;;;33.50;56.80;;;;;;4935739;28;19960;-71
2022/07/01 13:41:21;;;;;;;;;;;33.50;57.70;;;;;;4929457;28;19946;-71
2022/07/01 13:43:47;;;;;;;;;;;33.40;58.30;;;;;;4933208;29;19950;-71
2022/07/01 13:46:13;;;;;;;;;;;33.30;58.90;;;;;;4923993;28;19907;-71
2022/07/01 13:48:39;;;;;;;;;;;33.00;59.30;;;;;;4945049;28;19962;-71
2022/07/01 13:51:05;;;;;;;;;;;32.80;60.10;;;;;;4925127;29;19907;-71
2022/07/01 13:53:30;;;;;;;;;;;32.80;61.00;;;;;;4926622;29;19910;-73
2022/07/01 13:55:56;;;;;;;;;;;32.70;60.90;;;;;;4932068;28;19906;-71
2022/07/01 13:58:22;;;;;;;;;;;32.70;61.10;;;;;;4927037;28;20847;-71
2022/07/01 14:00:47;;;;;;;;;;;32.70;61.00;;;;;;4933793;28;20304;-71
2022/07/01 14:03:13;;;;;;;;;;;32.50;60.80;;;;;;4938471;28;19906;-71
2022/07/01 14:05:38;;;;;;;;;;;32.50;61.30;;;;;;4924960;28;20411;-71
2022/07/01 14:08:04;;;;;;;;;;;32.50;61.30;;;;;;4923749;29;19910;-71
2022/07/01 14:10:30;;;;;;;;;;;32.60;61.60;;;;;;4925921;29;20291;-71
2022/07/01 14:12:57;;;;;;;;;;;32.70;61.30;;;;;;4925721;29;19932;-73
2022/07/01 14:15:23;;;;;;;;;;;32.90;60.60;;;;;;4934328;28;20108;-71
2022/07/01 14:17:49;;;;;;;;;;;33.00;60.20;;;;;;4920551;28;19921;-71
2022/07/01 14:20:14;;;;;;;;;;;33.10;60.00;;;;;;4925239;29;20245;-71
2022/07/01 14:22:40;;;;;;;;;;;33.20;59.90;;;;;;4920801;29;19906;-71
2022/07/01 14:25:05;;;;;;;;;;;33.20;59.30;;;;;;4927669;28;19914;-72
2022/07/01 14:27:31;;;;;;;;;;;33.30;58.60;;;;;;4929205;29;19907;-71
2022/07/01 14:29:57;;;;;;;;;;;33.30;58.60;;;;;;4928404;29;20676;-77
2022/07/01 14:32:27;;;;;;;;;;;33.10;58.70;;;;;;4923607;29;19930;-75
2022/07/01 14:35:01;;;;;;;;;;;33.10;58.30;;;;;;4937101;29;19918;-75
2022/07/01 14:37:32;;;;;;;;;;;33.10;58.80;;;;;;4925742;28;19949;-75
2022/07/01 14:40:05;;;;;;;;;;;33.10;58.90;;;;;;4948524;28;19925;-75
2022/07/01 14:42:39;;;;;;;;;;;33.20;58.50;;;;;;4927842;29;19911;-76
2022/07/01 14:45:05;;;;;;;;;;;33.10;58.00;;;;;;4926695;29;20295;-76
2022/07/01 14:47:31;;;;;;;;;;;32.90;58.70;;;;;;4924341;29;19989;-76
2022/07/01 14:49:57;;;;;;;;;;;32.70;60.60;;;;;;4934096;28;20353;-79
2022/07/01 14:52:23;;;;;;;;;;;32.60;60.60;;;;;;4937593;28;19907;-76
2022/07/01 14:54:52;;;;;;;;;;;32.50;61.60;;;;;;4929791;29;19911;-78
2022/07/01 14:57:20;;;;;;;;;;;32.50;61.20;;;;;;4923027;29;20203;-75
2022/07/01 14:59:58;;;;;;;;;;;32.30;61.70;;;;;;4947554;28;19916;-76
2022/07/01 15:02:28;;;;;;;;;;;32.30;61.80;;;;;;4927801;28;19921;-75
2022/07/01 15:04:57;;;;;;;;;;;32.30;61.30;;;;;;4941237;28;20272;-75
2022/07/01 15:07:28;;;;;;;;;;;32.30;62.70;;;;;;4924939;29;20435;-76
2022/07/01 15:09:56;;;;;;;;;;;32.30;63.00;;;;;;4924285;29;19921;-75
2022/07/01 15:12:22;;;;;;;;;;;32.20;62.50;;;;;;4937440;28;19956;-78
2022/07/01 15:14:58;;;;;;;;;;;32.10;62.50;;;;;;4941223;28;19958;-79
2022/07/01 15:17:33;;;;;;;;;;;32.10;63.50;;;;;;4922163;29;20142;-80
2022/07/01 15:19:59;;;;;;;;;;;32.00;64.00;;;;;;4927558;29;20053;-79
2022/07/01 15:22:26;;;;;;;;;;;31.90;64.80;;;;;;4925269;29;20001;-78
2022/07/01 15:25:00;;;;;;;;;;;31.80;65.00;;;;;;4926706;29;19917;-79
2022/07/01 15:27:28;;;;;;;;;;;31.70;65.20;;;;;;4939343;28;19910;-78
2022/07/01 15:29:54;;;;;;;;;;;31.60;65.20;;;;;;4926733;29;19915;-80
2022/07/01 15:32:21;;;;;;;;;;;31.40;65.70;;;;;;4919598;29;20025;-80
2022/07/01 15:35:03;;;;;;;;;;;31.20;66.20;;;;;;4925124;29;19949;-78
2022/07/01 15:37:30;;;;;;;;;;;31.10;66.30;;;;;;4924458;29;20494;-82
2022/07/01 15:40:05;;;;;;;;;;;31.10;66.80;;;;;;4940456;28;19922;-88
2022/07/01 15:42:31;;;;;;;;;;;31.10;67.20;;;;;;4941515;28;19914;-76
2022/07/01 15:44:58;;;;;;;;;;;31.00;67.20;;;;;;4931630;28;20249;-81
2022/07/01 15:50:09;;;;;;;;;;;30.70;67.70;;;;;;4921439;29;19961;-79
2022/07/01 15:52:45;;;;;;;;;;;30.70;67.70;;;;;;4928387;29;19942;-79
2022/07/01 15:55:16;;;;;;;;;;;30.40;67.80;;;;;;4929026;28;19976;-78
2022/07/01 15:57:46;;;;;;;;;;;30.30;68.30;;;;;;4926172;29;19906;-81
2022/07/01 16:00:27;;;;;;;;;;;30.00;68.70;;;;;;4929112;28;19908;-80
2022/07/01 16:02:58;;;;;;;;;;;29.90;69.00;;;;;;4926207;28;19915;-78
2022/07/01 16:05:31;;;;;;;;;;;29.80;69.20;;;;;;4925572;29;20288;-78
2022/07/01 16:08:01;;;;;;;;;;;29.60;68.90;;;;;;4927102;28;19911;-77
2022/07/01 16:10:45;;;;;;;;;;;29.30;69.30;;;;;;4933623;28;20522;-64
2022/07/01 16:13:13;;;;;;;;;;;29.10;70.20;;;;;;4925274;28;20078;-65
2022/07/01 16:15:39;;;;;;;;;;;28.90;70.50;;;;;;4931099;29;19962;-77
2022/07/01 16:18:10;;;;;;;;;;;28.60;71.00;;;;;;4941437;28;19906;-78
2022/07/01 16:20:48;;;;;;;;;;;28.30;71.60;;;;;;4921632;29;19958;-78
2022/07/01 16:23:21;;;;;;;;;;;28.10;72.20;;;;;;4932232;28;19961;-77
2022/07/01 16:25:49;;;;;;;;;;;28.00;72.80;;;;;;4931435;29;20375;-78
2022/07/01 16:28:15;;;;;;;;;;;27.70;73.20;;;;;;4922556;28;19910;-78
2022/07/01 16:30:42;;;;;;;;;;;27.50;73.50;;;;;;4937639;28;19906;-78
2022/07/01 16:33:08;;;;;;;;;;;27.20;72.90;;;;;;4932734;29;19914;-78
2022/07/01 16:35:50;;;;;;;;;;;26.70;73.60;;;;;;4947745;28;19907;-77
2022/07/01 16:38:27;;;;;;;;;;;26.40;73.90;;;;;;4923325;29;20002;-79
2022/07/01 16:41:24;;;;;;;;;;;26.10;73.80;;;;;;4929047;29;19906;-78
2022/07/01 16:43:59;;;;;;;;;;;25.60;74.10;;;;;;4919339;29;20315;-77
2022/07/01 16:46:40;;;;;;;;;;;25.00;74.30;;;;;;4927746;28;19917;-77
2022/07/01 16:49:25;;;;;;;;;;;24.50;74.70;;;;;;4931796;29;19950;-77
2022/07/01 16:52:00;;;;;;;;;;;24.00;75.80;;;;;;4930797;29;19962;-76
2022/07/01 16:54:34;;;;;;;;;;;23.50;75.80;;;;;;4942907;28;20276;-80
2022/07/01 16:57:04;;;;;;;;;;;23.20;77.90;;;;;;4939146;29;20360;-79
2022/07/01 16:59:34;;;;;;;;;;;23.00;78.90;;;;;;4941674;28;19915;-78
2022/07/01 17:02:06;;;;;;;;;;;22.90;78.60;;;;;;4929664;29;20372;-76
2022/07/01 17:04:40;;;;;;;;;;;23.10;76.30;;;;;;4927009;29;19958;-76
2022/07/01 17:07:11;;;;;;;;;;;23.10;77.10;;;;;;4932875;29;20374;-75
2022/07/01 17:09:41;;;;;;;;;;;22.90;77.00;;;;;;4924392;28;19907;-72
2022/07/01 17:12:10;;;;;;;;;;;22.80;77.80;;;;;;4927989;28;20354;-73
2022/07/01 17:14:36;;;;;;;;;;;22.70;77.90;;;;;;4926760;29;19918;-74
2022/07/01 17:17:04;;;;;;;;;;;22.70;78.90;;;;;;4930628;29;19910;-75
2022/07/01 17:19:29;;;;;;;;;;;22.60;78.80;;;;;;4935692;28;20351;-74
2022/07/01 17:22:01;;;;;;;;;;;22.40;80.10;;;;;;4930385;29;19915;-74
2022/07/01 17:24:27;;;;;;;;;;;22.30;81.20;;;;;;4930797;29;20419;-73
2022/07/01 17:27:00;;;;;;;;;;;22.20;81.70;;;;;;4925271;28;19906;-73
2022/07/01 17:29:29;;;;;;;;;;;22.00;83.20;;;;;;4929391;29;20272;-73
2022/07/01 17:32:01;;;;;;;;;;;21.90;84.30;;;;;;4926497;28;19921;-73
2022/07/01 17:34:34;;;;;;;;;;;21.90;85.70;;;;;;4924441;29;19907;-74
2022/07/01 17:37:01;;;;;;;;;;;21.80;86.70;;;;;;4938693;29;19914;-74
2022/07/01 17:39:36;;;;;;;;;;;21.80;87.90;;;;;;4925682;29;19903;-77
2022/07/01 17:42:03;;;;;;;;;;;21.80;88.30;;;;;;4933845;29;20336;-75
2022/07/01 17:44:28;;;;;;;;;;;21.80;88.20;;;;;;4923750;29;20383;-74
2022/07/01 17:46:57;;;;;;;;;;;21.60;88.00;;;;;;4931102;29;19910;-73
2022/07/01 17:49:24;;;;;;;;;;;21.60;88.50;;;;;;4931495;28;20263;-74
2022/07/01 17:51:50;;;;;;;;;;;21.50;89.70;;;;;;4929840;29;20030;-72
2022/07/01 17:54:17;;;;;;;;;;;21.40;90.00;;;;;;4919288;29;20384;-73
2022/07/01 17:56:45;;;;;;;;;;;21.20;90.20;;;;;;4928054;29;19954;-74
2022/07/01 17:59:36;;;;;;;2.47;0.68;;;21.10;90.60;;;;;;5159705;22;20468;-76
2022/07/01 18:02:11;;;;;;;2.55;1.00;;;21.00;90.70;;;;;;5046034;28;20033;-78
2022/07/01 18:04:38;;;;;;;1.08;0.57;;;20.90;91.30;;;;;;5049364;28;20640;-78
2022/07/01 18:07:04;;;;;;;1.67;0.93;;;20.80;91.40;;;;;;5052330;28;20052;-76
2022/07/01 18:09:32;;;;;;;0.60;0.60;;;20.70;91.60;;;;;;5045882;28;20025;-75
2022/07/01 18:12:05;;;;;;;0.50;0.50;;;20.60;92.10;;;;;;5051704;28;20028;-74
2022/07/01 18:14:35;;;;;;;0.75;0.50;;;20.60;92.10;;;;;;5019331;28;20048;-73
2022/07/01 18:17:28;;;;;;;1.08;0.63;;;20.60;91.90;;;;;;5031670;28;20110;-74
2022/07/01 18:20:06;;;;;;;2.47;0.68;;;20.50;92.50;;;;;;5031016;28;20035;-75
2022/07/01 18:23:15;;;;;;;1.52;0.60;;;20.40;92.80;;;;;;5024697;28;20028;-74
2022/07/01 18:25:42;;;;;;;1.52;0.50;;;20.30;92.40;;;;;;5009609;28;20080;-74
2022/07/01 18:28:15;;;;;;;2.50;0.70;;;20.20;92.60;;;;;;5031329;28;20359;-74
2022/07/01 18:30:46;;;;;;;1.33;0.80;;;20.10;93.00;;;;;;5020453;28;20017;-75
2022/07/01 18:33:21;;;;;;;0.57;0.40;;;20.00;92.90;;;;;;5029260;28;20048;-75
2022/07/01 18:35:49;;;;;;;2.25;0.80;;;19.90;93.60;;;;;;5028141;28;20025;-74
2022/07/01 18:38:19;;;;;;;1.08;0.68;;;19.90;94.00;;;;;;5026977;28;20033;-74
2022/07/01 18:40:44;;;;;;;1.25;0.55;;;19.80;93.80;;;;;;5024196;28;20018;-76
2022/07/01 18:43:12;;;;;;;0.60;0.60;;;19.70;94.20;;;;;;5042868;28;20380;-75
2022/07/01 18:45:39;;;;;;;1.38;0.63;;;19.60;94.20;;;;;;5028908;28;20258;-75
2022/07/01 18:48:05;;;;;;;0.73;0.52;;;19.60;94.50;;;;;;5029992;28;20025;-76
2022/07/01 18:50:32;;;;;;;1.38;0.60;;;19.50;94.80;;;;;;5025425;28;20104;-76
2022/07/01 18:52:59;;;;;;;1.75;0.50;;;19.50;94.90;;;;;;5029790;28;20033;-76
2022/07/01 18:55:27;;;;;;;1.75;0.75;;;19.60;95.20;;;;;;5023264;28;20108;-75
2022/07/01 18:57:56;;;;;;;0.82;0.40;;;19.50;95.10;;;;;;5029686;28;20036;-76
2022/07/01 19:00:27;;;;;;;0.60;0.60;;;19.50;95.10;;;;;;5017758;28;20490;-76
2022/07/01 19:03:01;;;;;;;2.53;0.90;;;19.50;95.40;;;;;;5032589;28;20018;-75
2022/07/01 19:05:26;;;;;;;0.80;0.55;;;19.50;95.90;;;;;;5026249;28;20067;-75
2022/07/01 19:07:52;;;;;;;1.17;0.40;;;19.50;95.40;;;;;;5030781;28;20021;-74
2022/07/01 19:10:19;;;;;;;0.70;0.70;;;19.40;95.70;;;;;;5016127;28;20102;-75
2022/07/01 19:12:46;;;;;;;1.73;0.70;;;19.40;95.90;;;;;;5013571;28;20058;-76
2022/07/01 19:15:13;;;;;;;0.80;0.60;;;19.40;96.10;;;;;;5014293;28;20025;-75
2022/07/01 19:17:42;;;;;;;1.85;0.77;;;19.30;96.30;;;;;;5011154;28;20486;-76
2022/07/01 19:20:08;;;;;;;0.52;0.50;;;19.30;96.70;;;;;;5015313;28;20036;-76
2022/07/01 19:22:35;;;;;;;0.60;0.60;;;19.20;96.90;;;;;;5006715;28;20017;-75
2022/07/01 19:25:02;;;;;;;2.45;0.68;;;19.20;96.90;;;;;;5007294;28;20026;-75
2022/07/01 19:27:29;;;;;;;0.65;0.65;;;19.10;97.20;;;;;;5012060;28;20038;-75
2022/07/01 19:29:56;;;;;;;0.70;0.60;;;19.00;97.40;;;;;;5008338;28;20031;-75